createdAt,value
2017-11-30T00:00:18.251Z,8.2
2017-11-30T00:02:17.962Z,8.9
2017-11-30T00:04:17.686Z,8.2
2017-11-30T00:06:17.385Z,9.2
2017-11-30T00:08:18.121Z,8.9
2017-11-30T00:10:17.833Z,8.4
2017-11-30T00:12:17.571Z,9
2017-11-30T00:14:18.292Z,8.6
2017-11-30T00:16:18.017Z,9.3
2017-11-30T00:18:17.741Z,9.2
2017-11-30T00:20:17.477Z,9.6
2017-11-30T00:22:18.208Z,9.6
2017-11-30T00:24:17.929Z,8.8
2017-11-30T00:26:16.656Z,8.2
2017-11-30T00:28:18.382Z,10.6
2017-11-30T00:30:18.119Z,10.4
2017-11-30T00:32:17.855Z,9
2017-11-30T00:34:17.577Z,9.3
2017-11-30T00:36:17.345Z,9.4
2017-11-30T00:38:18.068Z,8.3
2017-11-30T00:40:17.792Z,9.3
2017-11-30T00:42:17.519Z,8.5
2017-11-30T00:44:18.233Z,8.8
2017-11-30T00:46:16.971Z,9.3
2017-11-30T00:48:17.728Z,8.9
2017-11-30T00:50:17.444Z,8.8
2017-11-30T00:52:18.202Z,8.2
2017-11-30T00:54:17.909Z,8.7
2017-11-30T00:56:16.669Z,8.8
2017-11-30T00:58:18.405Z,9.1
2017-11-30T01:00:18.140Z,8.9
2017-11-30T01:02:17.885Z,9.6
2017-11-30T01:04:17.604Z,8.4
2017-11-30T01:06:17.356Z,8.9
2017-11-30T01:08:18.096Z,9.2
2017-11-30T01:10:17.826Z,8.4
2017-11-30T01:12:17.568Z,8.5
2017-11-30T01:14:18.306Z,8.9
2017-11-30T01:16:17.029Z,10.1
2017-11-30T01:18:17.767Z,9.6
2017-11-30T01:20:17.475Z,10
2017-11-30T01:22:18.202Z,9.2
2017-11-30T01:24:17.958Z,9.4
2017-11-30T01:26:17.659Z,9.9
2017-11-30T01:28:18.373Z,9
2017-11-30T01:30:18.102Z,8.3
2017-11-30T01:32:17.811Z,9.1
2017-11-30T01:34:17.524Z,9.3
2017-11-30T01:36:18.253Z,8.7
2017-11-30T01:38:17.979Z,8.8
2017-11-30T01:40:17.704Z,9
2017-11-30T01:42:18.461Z,8.7
2017-11-30T01:44:18.145Z,9.4
2017-11-30T01:46:16.866Z,8.4
2017-11-30T01:48:17.542Z,8.7
2017-11-30T01:50:18.274Z,8
2017-11-30T01:52:18.008Z,8.5
2017-11-30T01:54:17.704Z,9.4
2017-11-30T01:56:17.427Z,8.5
2017-11-30T01:58:18.153Z,8.1
2017-11-30T02:00:17.846Z,8.8
2017-11-30T02:02:17.576Z,8.6
2017-11-30T02:04:18.279Z,8.8
2017-11-30T02:06:16.988Z,8.4
2017-11-30T02:08:17.702Z,8.6
2017-11-30T02:10:17.451Z,10.2
2017-11-30T02:12:18.153Z,8.8
2017-11-30T02:14:17.844Z,9.7
2017-11-30T02:16:17.533Z,9.1
2017-11-30T02:18:18.241Z,8.5
2017-11-30T02:20:17.955Z,8.6
2017-11-30T02:22:17.666Z,8.8
2017-11-30T02:24:18.388Z,10.1
2017-11-30T02:26:17.068Z,9.1
2017-11-30T02:28:17.780Z,8.7
2017-11-30T02:30:17.465Z,8.9
2017-11-30T02:32:18.170Z,8.6
2017-11-30T02:34:17.863Z,9.2
2017-11-30T02:36:17.577Z,8.7
2017-11-30T02:38:18.283Z,9.2
2017-11-30T02:40:16.986Z,9.5
2017-11-30T02:42:17.706Z,8.5
2017-11-30T02:44:18.395Z,8.9
2017-11-30T02:46:18.096Z,8.3
2017-11-30T02:48:17.815Z,8.6
2017-11-30T02:50:17.504Z,9.4
2017-11-30T02:52:18.202Z,8.7
2017-11-30T02:54:17.895Z,9.1
2017-11-30T02:56:16.586Z,9
2017-11-30T02:58:18.293Z,9.7
2017-11-30T03:00:17.996Z,10.1
2017-11-30T03:02:17.689Z,10.2
2017-11-30T03:04:18.373Z,10.7
2017-11-30T03:06:18.083Z,11
2017-11-30T03:08:17.761Z,10.5
2017-11-30T03:10:17.463Z,10
2017-11-30T03:12:18.157Z,10.3
2017-11-30T03:14:17.853Z,11.1
2017-11-30T03:16:17.543Z,10.7
2017-11-30T03:18:18.225Z,11.7
2017-11-30T03:20:17.919Z,9.9
2017-11-30T03:22:17.618Z,10.2
2017-11-30T03:24:18.330Z,10.3
2017-11-30T03:26:18.030Z,9.9
2017-11-30T03:28:17.730Z,10
2017-11-30T03:30:17.408Z,11
2017-11-30T03:32:18.128Z,10.5
2017-11-30T03:34:17.822Z,10.6
2017-11-30T03:36:17.513Z,10.9
2017-11-30T03:38:18.218Z,11.3
2017-11-30T03:40:16.904Z,10.7
2017-11-30T03:42:17.624Z,11.8
2017-11-30T03:44:18.333Z,11.5
2017-11-30T03:46:18.010Z,10.9
2017-11-30T03:48:17.691Z,11.3
2017-11-30T03:50:18.406Z,10.2
2017-11-30T03:52:18.097Z,11
2017-11-30T03:54:17.786Z,10.9
2017-11-30T03:56:17.476Z,11.6
2017-11-30T03:58:18.182Z,11.9
2017-11-30T04:00:17.886Z,12.2
2017-11-30T04:02:17.587Z,10.1
2017-11-30T04:04:18.269Z,11.2
2017-11-30T04:06:17.970Z,11.8
2017-11-30T04:08:17.689Z,12
2017-11-30T04:10:17.380Z,11.5
2017-11-30T04:12:18.054Z,10.7
2017-11-30T04:14:17.765Z,11.2
2017-11-30T04:16:17.482Z,11.3
2017-11-30T04:18:18.179Z,11.1
2017-11-30T04:20:17.881Z,11.1
2017-11-30T04:22:17.565Z,11.4
2017-11-30T04:24:18.279Z,11.8
2017-11-30T04:26:16.966Z,10.5
2017-11-30T04:28:17.669Z,10.9
2017-11-30T04:30:18.387Z,11.7
2017-11-30T04:32:18.088Z,10.9
2017-11-30T04:34:17.788Z,10.8
2017-11-30T04:36:21.484Z,11.3
2017-11-30T04:38:18.199Z,10.2
2017-11-30T04:40:16.912Z,10.9
2017-11-30T04:42:17.600Z,11
2017-11-30T04:44:18.295Z,10
2017-11-30T04:46:17.010Z,10.2
2017-11-30T04:48:17.699Z,11.5
2017-11-30T04:50:18.416Z,10.9
2017-11-30T04:52:18.102Z,11.1
2017-11-30T04:54:17.844Z,11.5
2017-11-30T04:56:17.557Z,11.5
2017-11-30T04:58:18.235Z,11.1
2017-11-30T05:00:17.931Z,10.8
2017-11-30T05:02:17.663Z,11.2
2017-11-30T05:04:18.366Z,10.7
2017-11-30T05:06:17.063Z,10.7
2017-11-30T05:08:17.769Z,10.2
2017-11-30T05:10:17.487Z,10
2017-11-30T05:12:18.198Z,10.1
2017-11-30T05:14:17.884Z,10.4
2017-11-30T05:16:20.572Z,11.4
2017-11-30T05:18:18.311Z,11.5
2017-11-30T05:20:18.026Z,11.6
2017-11-30T05:22:17.708Z,11.9
2017-11-30T05:24:18.418Z,11.1
2017-11-30T05:26:17.125Z,10.5
2017-11-30T05:28:17.840Z,10.4
2017-11-30T05:30:17.566Z,10.3
2017-11-30T05:32:18.250Z,10.7
2017-11-30T05:34:17.946Z,10.7
2017-11-30T05:36:16.704Z,10
2017-11-30T05:38:18.390Z,11.9
2017-11-30T05:40:17.110Z,11.6
2017-11-30T05:42:17.828Z,10.6
2017-11-30T05:44:17.535Z,11
2017-11-30T05:46:17.260Z,10.3
2017-11-30T05:48:17.988Z,10.7
2017-11-30T05:50:17.715Z,10.1
2017-11-30T05:52:17.430Z,10.4
2017-11-30T05:54:18.137Z,11.2
2017-11-30T05:56:17.845Z,11.3
2017-11-30T05:58:17.572Z,11.1
2017-11-30T06:00:18.307Z,11.5
2017-11-30T06:02:18.028Z,10.8
2017-11-30T06:04:17.755Z,10.3
2017-11-30T06:06:17.492Z,11
2017-11-30T06:08:18.217Z,11.4
2017-11-30T06:10:16.932Z,11.1
2017-11-30T06:12:17.659Z,10.8
2017-11-30T06:14:18.411Z,10.9
2017-11-30T06:16:17.141Z,11.1
2017-11-30T06:18:17.848Z,10.7
2017-11-30T06:20:17.576Z,10.8
2017-11-30T06:22:18.301Z,10.8
2017-11-30T06:24:18.037Z,9.6
2017-11-30T06:26:20.748Z,11
2017-11-30T06:28:17.512Z,10.5
2017-11-30T06:30:18.219Z,11.2
2017-11-30T06:32:17.952Z,10
2017-11-30T06:34:17.666Z,10.9
2017-11-30T06:36:17.389Z,11.2
2017-11-30T06:38:18.132Z,10.2
2017-11-30T06:40:17.860Z,10.1
2017-11-30T06:42:17.574Z,10.9
2017-11-30T06:44:18.326Z,11.1
2017-11-30T06:46:18.022Z,11.1
2017-11-30T06:48:17.744Z,11.6
2017-11-30T06:50:17.448Z,11.3
2017-11-30T06:52:18.185Z,11.9
2017-11-30T06:54:17.884Z,9.7
2017-11-30T06:56:20.567Z,12.1
2017-11-30T06:58:18.306Z,10.4
2017-11-30T07:00:18.005Z,10.6
2017-11-30T07:02:17.739Z,10.7
2017-11-30T07:04:17.458Z,10.3
2017-11-30T07:06:18.177Z,9.6
2017-11-30T07:08:17.910Z,10.2
2017-11-30T07:10:17.632Z,10.1
2017-11-30T07:12:18.382Z,10.8
2017-11-30T07:14:18.089Z,10.9
2017-11-30T07:16:17.809Z,10.9
2017-11-30T07:18:17.542Z,9.9
2017-11-30T07:20:18.255Z,9.8
2017-11-30T07:22:17.990Z,11.7
2017-11-30T07:24:17.705Z,11.2
2017-11-30T07:26:17.447Z,11
2017-11-30T07:28:18.177Z,9.8
2017-11-30T07:30:17.884Z,10.2
2017-11-30T07:32:17.620Z,10.8
2017-11-30T07:34:18.340Z,11.5
2017-11-30T07:36:17.060Z,10.7
2017-11-30T07:38:17.800Z,11.1
2017-11-30T07:40:17.519Z,10.4
2017-11-30T07:42:18.233Z,11.2
2017-11-30T07:44:17.985Z,10.7
2017-11-30T07:46:17.693Z,10.7
2017-11-30T07:48:18.399Z,9
2017-11-30T07:50:18.117Z,10.6
2017-11-30T07:52:17.844Z,10.4
2017-11-30T07:54:17.561Z,10.6
2017-11-30T07:56:17.292Z,11.4
2017-11-30T07:58:18.043Z,11.5
2017-11-30T08:00:17.714Z,10.5
2017-11-30T08:02:18.441Z,10.6
2017-11-30T08:04:18.165Z,11.1
2017-11-30T08:06:16.916Z,10.8
2017-11-30T08:08:17.635Z,11.1
2017-11-30T08:10:17.365Z,10.7
2017-11-30T08:12:18.098Z,11.1
2017-11-30T08:14:17.801Z,11.6
2017-11-30T08:16:17.526Z,11.2
2017-11-30T08:18:18.259Z,10.9
2017-11-30T08:20:18.005Z,11.8
2017-11-30T08:22:17.723Z,10.9
2017-11-30T08:24:18.459Z,11.6
2017-11-30T08:26:17.174Z,10.9
2017-11-30T08:28:17.930Z,10.2
2017-11-30T08:30:17.636Z,11.4
2017-11-30T08:32:18.363Z,11.1
2017-11-30T08:34:18.094Z,10
2017-11-30T08:36:16.808Z,10.8
2017-11-30T08:38:17.532Z,11.6
2017-11-30T08:40:17.288Z,11.6
2017-11-30T08:42:18.037Z,11.5
2017-11-30T08:44:17.762Z,11.1
2017-11-30T08:46:17.474Z,12.1
2017-11-30T08:48:18.206Z,12.4
2017-11-30T08:50:17.968Z,12.7
2017-11-30T08:52:17.711Z,12.6
2017-11-30T08:54:18.456Z,12.3
2017-11-30T08:56:17.169Z,12.4
2017-11-30T08:58:17.897Z,12.4
2017-11-30T09:00:17.643Z,11.9
2017-11-30T09:02:18.370Z,13.2
2017-11-30T09:04:18.099Z,12.4
2017-11-30T09:06:16.858Z,13.3
2017-11-30T09:08:17.572Z,12.7
2017-11-30T09:10:17.319Z,12.5
2017-11-30T09:12:18.043Z,12.8
2017-11-30T09:14:17.779Z,13
2017-11-30T09:16:17.504Z,13.3
2017-11-30T09:18:18.250Z,13
2017-11-30T09:20:17.998Z,12.5
2017-11-30T09:22:17.728Z,13.1
2017-11-30T09:24:17.455Z,14
2017-11-30T09:26:21.178Z,13.2
2017-11-30T09:28:17.926Z,13.8
2017-11-30T09:30:17.703Z,14.3
2017-11-30T09:32:18.433Z,15.1
2017-11-30T09:34:18.198Z,14.4
2017-11-30T09:36:16.939Z,14.4
2017-11-30T09:38:17.684Z,14
2017-11-30T09:40:17.436Z,14
2017-11-30T09:42:18.191Z,14.4
2017-11-30T09:44:17.965Z,15.8
2017-11-30T09:46:17.733Z,14.5
2017-11-30T09:48:17.509Z,15.8
2017-11-30T09:50:18.258Z,14.8
2017-11-30T09:52:18.025Z,14.6
2017-11-30T09:54:17.787Z,14.4
2017-11-30T09:56:17.553Z,14.6
2017-11-30T09:58:18.292Z,16.3
2017-11-30T10:00:18.045Z,15.4
2017-11-30T10:02:17.804Z,16
2017-11-30T10:04:20.575Z,15.3
2017-11-30T10:06:17.330Z,14.7
2017-11-30T10:08:18.105Z,15.8
2017-11-30T10:10:17.860Z,14.2
2017-11-30T10:12:17.629Z,14.9
2017-11-30T10:14:18.364Z,15.5
2017-11-30T10:16:18.142Z,14.4
2017-11-30T10:18:17.872Z,14.6
2017-11-30T10:20:17.617Z,14.6
2017-11-30T10:22:18.377Z,14.8
2017-11-30T10:24:18.138Z,14.4
2017-11-30T10:26:17.897Z,15
2017-11-30T10:28:17.634Z,14.5
2017-11-30T10:30:18.394Z,13.7
2017-11-30T10:32:18.143Z,13.9
2017-11-30T10:34:17.907Z,14.5
2017-11-30T10:36:16.652Z,14
2017-11-30T10:38:18.417Z,14.5
2017-11-30T10:40:17.168Z,13.8
2017-11-30T10:42:17.922Z,13.2
2017-11-30T10:44:17.677Z,12.7
2017-11-30T10:46:18.424Z,12.2
2017-11-30T10:48:21.191Z,10.9
2017-11-30T10:50:17.984Z,11.3
2017-11-30T10:52:17.733Z,12.5
2017-11-30T10:54:17.478Z,11.4
2017-11-30T10:56:17.243Z,11.3
2017-11-30T10:58:18.002Z,11.1
2017-11-30T11:00:17.758Z,11
2017-11-30T11:02:17.526Z,11.1
2017-11-30T11:04:18.280Z,11.9
2017-11-30T11:06:17.053Z,11.5
2017-11-30T11:08:17.798Z,11.4
2017-11-30T11:10:17.575Z,12.6
2017-11-30T11:12:18.334Z,11.3
2017-11-30T11:14:18.082Z,11.3
2017-11-30T11:16:17.862Z,12.7
2017-11-30T11:18:17.605Z,12
2017-11-30T11:20:18.356Z,12.7
2017-11-30T11:22:18.133Z,11.6
2017-11-30T11:24:17.875Z,10.8
2017-11-30T11:26:17.645Z,11.6
2017-11-30T11:28:18.409Z,11.8
2017-11-30T11:30:18.176Z,11.8
2017-11-30T11:32:17.938Z,11.5
2017-11-30T11:34:17.708Z,12.4
2017-11-30T11:36:17.469Z,12.7
2017-11-30T11:38:18.224Z,11.9
2017-11-30T11:40:17.001Z,11.8
2017-11-30T11:42:17.758Z,13.7
2017-11-30T11:44:17.520Z,12.8
2017-11-30T11:46:18.297Z,13.1
2017-11-30T11:48:18.065Z,12
2017-11-30T11:50:17.841Z,13.3
2017-11-30T11:52:17.572Z,13.3
2017-11-30T11:54:21.341Z,13.1
2017-11-30T11:56:17.103Z,13.7
2017-11-30T11:58:17.877Z,14.2
2017-11-30T12:00:17.649Z,14.2
2017-11-30T12:02:18.409Z,15.3
2017-11-30T12:04:18.180Z,15
2017-11-30T12:06:17.949Z,14.2
2017-11-30T12:08:17.712Z,14.3
2017-11-30T12:10:17.498Z,13.9
2017-11-30T12:12:18.262Z,14.6
2017-11-30T12:14:18.022Z,14.4
2017-11-30T12:16:16.800Z,16.6
2017-11-30T12:18:17.560Z,15.1
2017-11-30T12:20:18.308Z,13.8
2017-11-30T12:22:18.035Z,16.2
2017-11-30T12:24:17.805Z,14.6
2017-11-30T12:26:17.571Z,14.2
2017-11-30T12:28:18.319Z,16.7
2017-11-30T12:30:18.059Z,15.6
2017-11-30T12:32:17.848Z,16.7
2017-11-30T12:34:17.570Z,17.1
2017-11-30T12:36:18.329Z,16.7
2017-11-30T12:38:18.084Z,16.8
2017-11-30T12:40:17.842Z,16.5
2017-11-30T12:42:17.609Z,17.5
2017-11-30T12:44:18.341Z,15.8
2017-11-30T12:46:17.120Z,16.6
2017-11-30T12:48:17.868Z,14.9
2017-11-30T12:50:17.634Z,16
2017-11-30T12:52:18.359Z,14.7
2017-11-30T12:54:18.141Z,15.4
2017-11-30T12:56:16.865Z,15.6
2017-11-30T12:58:17.647Z,13.8
2017-11-30T13:00:18.376Z,14.2
2017-11-30T13:02:18.136Z,16.3
2017-11-30T13:04:17.878Z,16.1
2017-11-30T13:06:17.626Z,17.2
2017-11-30T13:08:18.388Z,15.7
2017-11-30T13:10:17.135Z,15.9
2017-11-30T13:12:17.893Z,14.8
2017-11-30T13:14:17.653Z,16.4
2017-11-30T13:16:17.361Z,15
2017-11-30T13:18:18.108Z,15.6
2017-11-30T13:22:17.644Z,15.3
2017-11-30T13:24:18.385Z,15.6
2017-11-30T13:26:18.126Z,15.7
2017-11-30T13:28:17.871Z,16.2
2017-11-30T13:30:17.633Z,16.4
2017-11-30T13:32:18.385Z,15.7
2017-11-30T13:34:18.153Z,15.2
2017-11-30T13:36:17.900Z,17.1
2017-11-30T13:38:17.645Z,17.1
2017-11-30T13:40:17.376Z,16.3
2017-11-30T13:42:18.117Z,14.8
2017-11-30T13:44:17.855Z,16.6
2017-11-30T13:46:17.552Z,16.8
2017-11-30T13:48:18.281Z,17.4
2017-11-30T13:50:18.036Z,18.8
2017-11-30T13:52:17.770Z,17.7
2017-11-30T13:54:17.489Z,16.6
2017-11-30T13:56:17.236Z,17
2017-11-30T13:58:17.968Z,16.4
2017-11-30T14:00:17.732Z,17.2
2017-11-30T14:02:17.465Z,17.5
2017-11-30T14:04:18.196Z,16.1
2017-11-30T14:06:16.930Z,17.2
2017-11-30T14:08:17.671Z,17.8
2017-11-30T14:10:17.439Z,17.9
2017-11-30T14:12:18.147Z,17.5
2017-11-30T14:14:17.877Z,17.3
2017-11-30T14:16:17.612Z,18.3
2017-11-30T14:18:18.336Z,16.7
2017-11-30T14:20:18.088Z,17.6
2017-11-30T14:22:17.800Z,17.7
2017-11-30T14:24:17.535Z,16.6
2017-11-30T14:26:17.269Z,17
2017-11-30T14:28:17.992Z,16.5
2017-11-30T14:30:17.734Z,15.7
2017-11-30T14:32:17.463Z,16.5
2017-11-30T14:34:18.198Z,16.9
2017-11-30T14:36:16.929Z,17
2017-11-30T14:38:17.674Z,16.8
2017-11-30T14:40:17.406Z,19.4
2017-11-30T14:42:18.132Z,17.4
2017-11-30T14:44:17.859Z,16.9
2017-11-30T14:46:17.598Z,17.8
2017-11-30T14:48:18.338Z,17.6
2017-11-30T14:50:18.059Z,16.8
2017-11-30T14:52:17.774Z,17.6
2017-11-30T14:54:17.528Z,17.4
2017-11-30T14:56:17.231Z,17.1
2017-11-30T14:58:17.968Z,16.5
2017-11-30T15:00:17.693Z,17.7
2017-11-30T15:02:18.417Z,16.3
2017-11-30T15:04:18.140Z,16.3
2017-11-30T15:06:16.864Z,17.3
2017-11-30T15:08:17.583Z,15.6
2017-11-30T15:10:17.320Z,17.2
2017-11-30T15:12:18.040Z,16.7
2017-11-30T15:14:17.752Z,19.3
2017-11-30T15:16:17.472Z,16.5
2017-11-30T15:18:18.199Z,15
2017-11-30T15:20:17.914Z,18.2
2017-11-30T15:22:17.644Z,16.8
2017-11-30T15:24:18.334Z,15.7
2017-11-30T15:26:17.076Z,16
2017-11-30T15:28:17.767Z,17.8
2017-11-30T15:30:17.456Z,16
2017-11-30T15:32:18.185Z,15
2017-11-30T15:34:17.897Z,17.1
2017-11-30T15:36:17.595Z,14.6
2017-11-30T15:38:18.324Z,15.5
2017-11-30T15:40:17.048Z,14.3
2017-11-30T15:42:17.795Z,14.7
2017-11-30T15:44:17.504Z,13.9
2017-11-30T15:46:17.227Z,13.9
2017-11-30T15:48:17.934Z,13.3
2017-11-30T15:50:17.678Z,15.6
2017-11-30T15:52:18.396Z,13.7
2017-11-30T15:54:18.109Z,15.4
2017-11-30T15:56:20.800Z,14.8
2017-11-30T15:58:17.531Z,15.5
2017-11-30T16:00:18.266Z,13.1
2017-11-30T16:02:17.957Z,14
2017-11-30T16:04:17.691Z,12.4
2017-11-30T16:06:17.403Z,13.7
2017-11-30T16:08:18.162Z,13
2017-11-30T16:10:16.865Z,13.2
2017-11-30T16:12:17.566Z,11.5
2017-11-30T16:14:18.289Z,13.6
2017-11-30T16:16:17.989Z,13.5
2017-11-30T16:18:17.727Z,12.2
2017-11-30T16:20:18.454Z,12.5
2017-11-30T16:22:18.154Z,13.7
2017-11-30T16:24:17.884Z,12.8
2017-11-30T16:26:17.601Z,13
2017-11-30T16:28:18.297Z,10.3
2017-11-30T16:30:18.011Z,11.2
2017-11-30T16:32:17.732Z,11.9
2017-11-30T16:34:17.434Z,11.6
2017-11-30T16:36:17.177Z,10.7
2017-11-30T16:38:17.897Z,11.6
2017-11-30T16:40:17.619Z,11
2017-11-30T16:42:18.350Z,11.4
2017-11-30T16:44:18.066Z,12.3
2017-11-30T16:46:17.815Z,11.4
2017-11-30T16:48:17.524Z,10.7
2017-11-30T16:50:18.232Z,11.3
2017-11-30T16:52:17.973Z,10.6
2017-11-30T16:54:17.699Z,9.7
2017-11-30T16:56:17.404Z,11
2017-11-30T16:58:18.145Z,10.9
2017-11-30T17:00:17.875Z,11
2017-11-30T17:02:17.629Z,11.2
2017-11-30T17:04:18.334Z,11.4
2017-11-30T17:06:17.072Z,9.5
2017-11-30T17:08:17.804Z,10.3
2017-11-30T17:10:17.522Z,10.5
2017-11-30T17:12:18.239Z,10.3
2017-11-30T17:14:17.966Z,10.1
2017-11-30T17:16:17.724Z,11.2
2017-11-30T17:18:17.429Z,11.2
2017-11-30T17:20:18.172Z,11.8
2017-11-30T17:22:17.898Z,11.7
2017-11-30T17:24:17.612Z,11.9
2017-11-30T17:26:17.361Z,11.2
2017-11-30T17:28:18.094Z,10.6
2017-11-30T17:30:17.826Z,10.9
2017-11-30T17:32:17.565Z,10.5
2017-11-30T17:34:18.309Z,10.9
2017-11-30T17:36:18.047Z,12.4
2017-11-30T17:38:17.802Z,12.5
2017-11-30T17:40:17.554Z,12
2017-11-30T17:42:18.281Z,12.6
2017-11-30T17:44:17.998Z,10.9
2017-11-30T17:46:16.766Z,10.7
2017-11-30T17:48:17.470Z,11.6
2017-11-30T17:50:18.206Z,10.3
2017-11-30T17:52:17.945Z,10.8
2017-11-30T17:54:17.673Z,11
2017-11-30T17:56:17.393Z,11.4
2017-11-30T17:58:18.150Z,11.4
2017-11-30T18:00:17.869Z,10
2017-11-30T18:02:17.604Z,11.1
2017-11-30T18:04:18.353Z,10.3
2017-11-30T18:06:18.061Z,11.4
2017-11-30T18:08:17.815Z,11.2
2017-11-30T18:10:17.543Z,10.9
2017-11-30T18:12:18.274Z,10.8
2017-11-30T18:14:18.026Z,10.4
2017-11-30T18:16:17.728Z,10.8
2017-11-30T18:18:17.474Z,10.1
2017-11-30T18:20:18.226Z,11
2017-11-30T18:22:17.958Z,10.9
2017-11-30T18:24:17.727Z,10.9
2017-11-30T18:26:17.457Z,10.6
2017-11-30T18:28:18.217Z,11.7
2017-11-30T18:30:17.970Z,12.6
2017-11-30T18:32:17.712Z,12.1
2017-11-30T18:34:18.462Z,10.6
2017-11-30T18:36:17.192Z,11.4
2017-11-30T18:38:17.933Z,11.9
2017-11-30T18:40:17.697Z,11.7
2017-11-30T18:42:18.444Z,11.2
2017-11-30T18:44:18.180Z,11.1
2017-11-30T18:46:17.939Z,11.6
2017-11-30T18:48:21.997Z,11.5
2017-11-30T18:50:17.422Z,11
2017-11-30T18:52:18.164Z,11.3
2017-11-30T18:54:17.913Z,11.1
2017-11-30T18:56:17.675Z,11.4
2017-11-30T18:58:18.468Z,11.2
2017-11-30T19:00:18.170Z,12.7
2017-11-30T19:02:17.937Z,11.1
2017-11-30T19:04:17.712Z,10.9
2017-11-30T19:06:17.418Z,11
2017-11-30T19:08:18.170Z,12.4
2017-11-30T19:10:17.907Z,10.8
2017-11-30T19:12:17.665Z,12
2017-11-30T19:14:18.432Z,11.5
2017-11-30T19:16:17.177Z,11.3
2017-11-30T19:18:17.944Z,11.7
2017-11-30T19:20:17.702Z,11.8
2017-11-30T19:22:18.489Z,11.2
2017-11-30T19:24:18.198Z,12
2017-11-30T19:26:17.962Z,12.3
2017-11-30T19:28:17.713Z,11.8
2017-11-30T19:30:18.465Z,14
2017-11-30T19:32:18.197Z,13.9
2017-11-30T19:34:17.937Z,13
2017-11-30T19:36:17.690Z,12.6
2017-11-30T19:38:18.423Z,12.8
2017-11-30T19:40:17.170Z,13.5
2017-11-30T19:42:17.918Z,12.7
2017-11-30T19:44:17.673Z,10.8
2017-11-30T19:46:17.427Z,9.9
2017-11-30T19:48:18.161Z,10.3
2017-11-30T19:50:17.929Z,11.4
2017-11-30T19:52:17.654Z,11.8
2017-11-30T19:54:18.397Z,12.2
2017-11-30T19:56:17.123Z,12.1
2017-11-30T19:58:17.896Z,12.8
2017-11-30T20:00:17.615Z,13.7
2017-11-30T20:02:18.399Z,13.5
2017-11-30T20:04:18.102Z,12.3
2017-11-30T20:06:16.868Z,12.2
2017-11-30T20:08:17.564Z,11.4
2017-11-30T20:10:17.320Z,11.9
2017-11-30T20:12:18.062Z,11.5
2017-11-30T20:14:17.763Z,11.8
2017-11-30T20:16:17.511Z,11.9
2017-11-30T20:18:18.238Z,11
2017-11-30T20:20:18.004Z,11.4
2017-11-30T20:22:17.745Z,9.9
2017-11-30T20:24:17.460Z,9.4
2017-11-30T20:26:17.221Z,10.8
2017-11-30T20:28:17.950Z,9.9
2017-11-30T20:30:17.706Z,9.6
2017-11-30T20:32:18.438Z,9.3
2017-11-30T20:34:18.171Z,9.5
2017-11-30T20:36:16.915Z,9.8
2017-11-30T20:38:17.665Z,10.7
2017-11-30T20:40:17.391Z,10.3
2017-11-30T20:42:18.129Z,10.9
2017-11-30T20:44:17.864Z,10.9
2017-11-30T20:46:17.599Z,11.2
2017-11-30T20:48:18.350Z,11.2
2017-11-30T20:50:18.080Z,10.6
2017-11-30T20:52:17.812Z,10.2
2017-11-30T20:54:17.557Z,10.5
2017-11-30T20:56:17.298Z,10.6
2017-11-30T20:58:18.061Z,12.1
2017-11-30T21:00:17.803Z,10.2
2017-11-30T21:02:17.531Z,11.2
2017-11-30T21:04:18.273Z,12.7
2017-11-30T21:06:17.019Z,11.5
2017-11-30T21:08:17.747Z,10.3
2017-11-30T21:10:17.499Z,10
2017-11-30T21:12:18.255Z,10.6
2017-11-30T21:14:17.979Z,10
2017-11-30T21:16:16.729Z,10.1
2017-11-30T21:18:17.492Z,9.3
2017-11-30T21:20:18.218Z,9.2
2017-11-30T21:22:17.986Z,9.6
2017-11-30T21:24:17.747Z,9.2
2017-11-30T21:26:17.472Z,9.6
2017-11-30T21:28:18.205Z,9.2
2017-11-30T21:30:17.935Z,9.1
2017-11-30T21:32:17.660Z,9.4
2017-11-30T21:34:18.403Z,9.6
2017-11-30T21:36:18.131Z,10.1
2017-11-30T21:38:17.846Z,9
2017-11-30T21:40:17.555Z,8.7
2017-11-30T21:42:18.288Z,8.9
2017-11-30T21:44:18.020Z,9.3
2017-11-30T21:46:16.744Z,9.6
2017-11-30T21:48:17.446Z,9.3
2017-11-30T21:50:18.197Z,11.2
2017-11-30T21:52:17.923Z,10.1
2017-11-30T21:54:17.653Z,10.7
2017-11-30T21:56:21.401Z,9.7
2017-11-30T21:58:18.112Z,10.9
2017-11-30T22:00:17.849Z,10.1
2017-11-30T22:02:17.590Z,10.9
2017-11-30T22:04:18.311Z,9.7
2017-11-30T22:06:18.048Z,10.2
2017-11-30T22:08:17.771Z,10.2
2017-11-30T22:10:17.500Z,9.5
2017-11-30T22:12:18.253Z,10.6
2017-11-30T22:14:17.966Z,9.5
2017-11-30T22:16:17.690Z,11.3
2017-11-30T22:18:17.422Z,10.6
2017-11-30T22:20:18.139Z,10.9
2017-11-30T22:22:17.872Z,10.5
2017-11-30T22:24:17.610Z,10.2
2017-11-30T22:26:17.347Z,10.9
2017-11-30T22:28:18.083Z,10.3
2017-11-30T22:30:17.828Z,12.2
2017-11-30T22:32:17.547Z,11.8
2017-11-30T22:34:18.279Z,10.7
2017-11-30T22:36:17.030Z,10.7
2017-11-30T22:38:17.742Z,10.5
2017-11-30T22:40:17.499Z,10.5
2017-11-30T22:42:18.203Z,11.4
2017-11-30T22:44:17.942Z,10.9
2017-11-30T22:46:17.672Z,10.9
2017-11-30T22:48:18.415Z,12.2
2017-11-30T22:50:18.188Z,11.4
2017-11-30T22:52:17.895Z,11.7
2017-11-30T22:54:17.633Z,10.9
2017-11-30T22:56:17.357Z,11.6
2017-11-30T22:58:18.098Z,10.7
2017-11-30T23:00:17.827Z,11.5
2017-11-30T23:02:17.547Z,12
2017-11-30T23:04:18.263Z,12.4
2017-11-30T23:06:17.993Z,11.7
2017-11-30T23:08:17.715Z,11.8
2017-11-30T23:10:17.433Z,14.1
2017-11-30T23:12:18.164Z,14.1
2017-11-30T23:14:17.899Z,14.9
2017-11-30T23:16:17.639Z,14.5
2017-11-30T23:18:17.343Z,12.9
2017-11-30T23:20:18.073Z,12.9
2017-11-30T23:22:17.754Z,13.6
2017-11-30T23:24:17.484Z,14.8
2017-11-30T23:26:17.210Z,12.7
2017-11-30T23:28:17.896Z,12.9
2017-11-30T23:30:17.599Z,12.8
2017-11-30T23:32:18.318Z,12.3
2017-11-30T23:34:18.003Z,13
2017-11-30T23:36:17.719Z,11.8
2017-11-30T23:38:18.408Z,13.1
2017-11-30T23:40:17.115Z,12.3
2017-11-30T23:42:17.794Z,10.9
2017-11-30T23:44:17.526Z,12.9
2017-11-30T23:46:17.206Z,11.9
2017-11-30T23:48:17.907Z,13.7
2017-11-30T23:50:17.586Z,14.5
2017-11-30T23:52:18.278Z,15.1
2017-11-30T23:54:17.972Z,16
2017-11-30T23:56:17.672Z,15.7
2017-11-30T23:58:18.372Z,16.2
